createdAt,value
2018-11-06T00:00:59.950Z,988.2
2018-11-06T00:02:00.557Z,988.2
2018-11-06T00:03:01.274Z,988.2
2018-11-06T00:04:01.990Z,988.2
2018-11-06T00:05:02.659Z,988.3
2018-11-06T00:06:03.335Z,988.2
2018-11-06T00:07:04.044Z,988.3
2018-11-06T00:08:04.712Z,988.2
2018-11-06T00:09:05.385Z,988.2
2018-11-06T00:10:06.061Z,988.3
2018-11-06T00:11:06.723Z,988.2
2018-11-06T00:12:07.392Z,988.2
2018-11-06T00:13:08.063Z,988.2
2018-11-06T00:14:08.781Z,988.2
2018-11-06T00:15:09.449Z,988.2
2018-11-06T00:16:10.119Z,988.2
2018-11-06T00:17:10.787Z,988.2
2018-11-06T00:18:11.456Z,988.2
2018-11-06T00:19:12.126Z,988.2
2018-11-06T00:20:12.795Z,988.2
2018-11-06T00:21:13.510Z,988.2
2018-11-06T00:22:14.182Z,988.2
2018-11-06T00:23:14.852Z,988.2
2018-11-06T00:24:15.519Z,988.1
2018-11-06T00:25:16.187Z,988.2
2018-11-06T00:26:16.859Z,988.1
2018-11-06T00:27:17.532Z,988.1
2018-11-06T00:28:18.197Z,988.0
2018-11-06T00:29:18.866Z,988.1
2018-11-06T00:30:19.550Z,988.1
2018-11-06T00:31:20.205Z,988.1
2018-11-06T00:32:20.875Z,988.1
2018-11-06T00:33:21.553Z,988.2
2018-11-06T00:34:22.295Z,988.1
2018-11-06T00:35:22.884Z,988.2
2018-11-06T00:36:23.552Z,988.1
2018-11-06T00:37:24.222Z,988.1
2018-11-06T00:38:24.901Z,988.1
2018-11-06T00:39:25.563Z,988.2
2018-11-06T00:40:26.231Z,988.1
2018-11-06T00:41:26.948Z,988.2
2018-11-06T00:42:27.623Z,988.2
2018-11-06T00:43:28.338Z,988.2
2018-11-06T00:44:29.054Z,988.2
2018-11-06T00:45:29.762Z,988.2
2018-11-06T00:46:30.432Z,988.3
2018-11-06T00:47:31.099Z,988.3
2018-11-06T00:48:31.771Z,988.3
2018-11-06T00:49:32.448Z,988.3
2018-11-06T00:50:33.110Z,988.3
2018-11-06T00:51:33.777Z,988.3
2018-11-06T00:52:34.447Z,988.3
2018-11-06T00:53:35.115Z,988.3
2018-11-06T00:54:35.836Z,988.3
2018-11-06T00:55:36.509Z,988.2
2018-11-06T00:56:37.173Z,988.3
2018-11-06T00:57:37.841Z,988.3
2018-11-06T00:58:38.510Z,988.3
2018-11-06T00:59:39.177Z,988.2
2018-11-06T01:00:39.847Z,988.2
2018-11-06T01:01:40.518Z,988.2
2018-11-06T01:02:41.187Z,988.2
2018-11-06T01:03:41.875Z,988.1
2018-11-06T01:04:42.523Z,988.1
2018-11-06T01:05:43.199Z,988.1
2018-11-06T01:06:43.908Z,988.1
2018-11-06T01:07:44.580Z,988.1
2018-11-06T01:08:45.248Z,988.1
2018-11-06T01:09:45.927Z,988.0
2018-11-06T01:10:46.635Z,988.0
2018-11-06T01:11:47.305Z,988.0
2018-11-06T01:12:47.975Z,988.0
2018-11-06T01:13:48.641Z,988.0
2018-11-06T01:14:49.311Z,988.0
2018-11-06T01:15:49.979Z,988.0
2018-11-06T01:16:50.648Z,988.0
2018-11-06T01:17:51.313Z,988.0
2018-11-06T01:18:51.979Z,988.0
2018-11-06T01:19:52.651Z,988.0
2018-11-06T01:20:53.361Z,988.0
2018-11-06T01:21:54.029Z,988.0
2018-11-06T01:22:54.696Z,988.0
2018-11-06T01:23:55.364Z,988.0
2018-11-06T01:24:56.030Z,988.0
2018-11-06T01:25:56.697Z,988.0
2018-11-06T01:26:57.366Z,988.0
2018-11-06T01:27:58.073Z,988.0
2018-11-06T01:28:58.751Z,988.0
2018-11-06T01:29:59.409Z,988.0
2018-11-06T01:31:00.077Z,987.9
2018-11-06T01:32:00.744Z,987.9
2018-11-06T01:33:01.411Z,987.9
2018-11-06T01:34:02.079Z,988.0
2018-11-06T01:35:02.747Z,987.9
2018-11-06T01:36:03.413Z,988.0
2018-11-06T01:37:04.079Z,988.0
2018-11-06T01:38:04.746Z,988.0
2018-11-06T01:39:05.413Z,988.0
2018-11-06T01:40:06.087Z,988.0
2018-11-06T01:41:06.748Z,988.0
2018-11-06T01:42:07.413Z,988.0
2018-11-06T01:43:08.082Z,988.0
2018-11-06T01:44:08.792Z,988.0
2018-11-06T01:45:09.460Z,988.0
2018-11-06T01:46:10.127Z,988.0
2018-11-06T01:47:10.793Z,988.0
2018-11-06T01:48:11.468Z,988.0
2018-11-06T01:49:12.126Z,988.0
2018-11-06T01:50:12.793Z,988.0
2018-11-06T01:51:13.460Z,988.0
2018-11-06T01:52:14.126Z,988.0
2018-11-06T01:53:14.794Z,988.0
2018-11-06T01:54:15.504Z,988.0
2018-11-06T01:55:16.225Z,988.0
2018-11-06T01:56:16.890Z,988.0
2018-11-06T01:57:17.555Z,988.0
2018-11-06T01:58:18.222Z,988.0
2018-11-06T01:59:18.887Z,988.1
2018-11-06T02:00:19.554Z,988.1
2018-11-06T02:01:20.220Z,988.1
2018-11-06T02:02:20.932Z,988.1
2018-11-06T02:03:21.599Z,988.1
2018-11-06T02:04:22.263Z,988.1
2018-11-06T02:05:22.931Z,988.1
2018-11-06T02:06:23.598Z,988.1
2018-11-06T02:07:24.265Z,988.1
2018-11-06T02:08:24.931Z,988.1
2018-11-06T02:09:25.599Z,988.1
2018-11-06T02:10:26.265Z,988.1
2018-11-06T02:11:26.931Z,988.1
2018-11-06T02:12:27.598Z,988.1
2018-11-06T02:13:28.265Z,988.1
2018-11-06T02:14:28.936Z,988.0
2018-11-06T02:15:29.651Z,988.1
2018-11-06T02:16:30.309Z,988.1
2018-11-06T02:17:30.980Z,988.1
2018-11-06T02:18:31.643Z,988.1
2018-11-06T02:19:32.312Z,988.1
2018-11-06T02:20:32.977Z,988.1
2018-11-06T02:21:33.642Z,988.1
2018-11-06T02:22:34.310Z,988.1
2018-11-06T02:23:34.976Z,988.1
2018-11-06T02:24:35.643Z,988.1
2018-11-06T02:25:36.308Z,988.1
2018-11-06T02:26:37.002Z,988.2
2018-11-06T02:27:37.642Z,988.1
2018-11-06T02:28:38.309Z,988.1
2018-11-06T02:29:38.976Z,988.1
2018-11-06T02:30:39.644Z,988.2
2018-11-06T02:31:40.312Z,988.2
2018-11-06T02:32:40.978Z,988.1
2018-11-06T02:33:41.644Z,988.2
2018-11-06T02:34:42.319Z,988.2
2018-11-06T02:35:43.021Z,988.1
2018-11-06T02:36:43.687Z,988.1
2018-11-06T02:37:44.359Z,988.1
2018-11-06T02:38:45.065Z,988.1
2018-11-06T02:39:45.776Z,988.1
2018-11-06T02:40:46.442Z,988.1
2018-11-06T02:41:47.108Z,988.1
2018-11-06T02:42:47.774Z,988.1
2018-11-06T02:43:48.440Z,988.1
2018-11-06T02:44:49.110Z,988.2
2018-11-06T02:45:49.774Z,988.2
2018-11-06T02:46:50.449Z,988.2
2018-11-06T02:47:51.108Z,988.2
2018-11-06T02:48:51.774Z,988.2
2018-11-06T02:49:52.484Z,988.2
2018-11-06T02:50:53.151Z,988.2
2018-11-06T02:51:53.817Z,988.2
2018-11-06T02:52:54.486Z,988.2
2018-11-06T02:53:55.196Z,988.2
2018-11-06T02:54:55.863Z,988.2
2018-11-06T02:55:56.692Z,988.2
2018-11-06T02:56:57.252Z,988.2
2018-11-06T02:57:57.912Z,988.2
2018-11-06T02:58:58.620Z,988.2
2018-11-06T02:59:59.287Z,988.2
2018-11-06T03:00:59.953Z,988.2
2018-11-06T03:02:00.621Z,988.2
2018-11-06T03:03:01.295Z,988.2
2018-11-06T03:04:02.041Z,988.3
2018-11-06T03:05:02.666Z,988.3
2018-11-06T03:06:03.335Z,988.3
2018-11-06T03:07:04.002Z,988.4
2018-11-06T03:08:04.669Z,988.4
2018-11-06T03:09:05.380Z,988.3
2018-11-06T03:10:06.050Z,988.3
2018-11-06T03:11:06.715Z,988.4
2018-11-06T03:12:07.391Z,988.4
2018-11-06T03:13:08.048Z,988.4
2018-11-06T03:14:08.714Z,988.4
2018-11-06T03:15:09.381Z,988.4
2018-11-06T03:16:10.057Z,988.4
2018-11-06T03:17:10.760Z,988.4
2018-11-06T03:18:11.426Z,988.4
2018-11-06T03:19:12.093Z,988.3
2018-11-06T03:20:12.759Z,988.4
2018-11-06T03:21:13.427Z,988.4
2018-11-06T03:22:14.099Z,988.4
2018-11-06T03:23:14.766Z,988.3
2018-11-06T03:24:15.425Z,988.4
2018-11-06T03:25:16.093Z,988.4
2018-11-06T03:26:16.806Z,988.3
2018-11-06T03:27:17.473Z,988.4
2018-11-06T03:28:18.188Z,988.4
2018-11-06T03:29:18.853Z,988.4
2018-11-06T03:30:19.523Z,988.3
2018-11-06T03:31:20.230Z,988.3
2018-11-06T03:32:20.899Z,988.3
2018-11-06T03:33:21.607Z,988.3
2018-11-06T03:34:22.274Z,988.3
2018-11-06T03:35:22.942Z,988.3
2018-11-06T03:36:23.609Z,988.4
2018-11-06T03:37:24.279Z,988.4
2018-11-06T03:38:24.942Z,988.4
2018-11-06T03:39:25.611Z,988.4
2018-11-06T03:40:26.287Z,988.3
2018-11-06T03:41:26.988Z,988.4
2018-11-06T03:42:27.646Z,988.3
2018-11-06T03:43:28.314Z,988.3
2018-11-06T03:44:28.979Z,988.4
2018-11-06T03:45:29.647Z,988.4
2018-11-06T03:46:30.314Z,988.4
2018-11-06T03:47:30.982Z,988.4
2018-11-06T03:48:31.650Z,988.4
2018-11-06T03:49:32.311Z,988.4
2018-11-06T03:50:32.980Z,988.4
2018-11-06T03:51:33.647Z,988.4
2018-11-06T03:52:34.324Z,988.4
2018-11-06T03:53:35.024Z,988.4
2018-11-06T03:54:35.689Z,988.4
2018-11-06T03:55:36.358Z,988.4
2018-11-06T03:56:37.025Z,988.4
2018-11-06T03:57:37.736Z,988.3
2018-11-06T03:58:38.442Z,988.3
2018-11-06T03:59:39.111Z,988.3
2018-11-06T04:00:39.777Z,988.3
2018-11-06T04:01:40.443Z,988.4
2018-11-06T04:02:41.114Z,988.4
2018-11-06T04:03:41.821Z,988.4
2018-11-06T04:04:42.488Z,988.4
2018-11-06T04:05:43.157Z,988.4
2018-11-06T04:06:43.870Z,988.4
2018-11-06T04:07:44.541Z,988.5
2018-11-06T04:08:45.243Z,988.5
2018-11-06T04:09:45.912Z,988.5
2018-11-06T04:10:46.577Z,988.5
2018-11-06T04:11:47.245Z,988.5
2018-11-06T04:12:47.909Z,988.5
2018-11-06T04:13:48.583Z,988.5
2018-11-06T04:14:49.297Z,988.6
2018-11-06T04:15:49.961Z,988.5
2018-11-06T04:16:50.627Z,988.6
2018-11-06T04:17:51.292Z,988.5
2018-11-06T04:18:51.959Z,988.5
2018-11-06T04:19:52.625Z,988.5
2018-11-06T04:20:53.292Z,988.5
2018-11-06T04:21:53.958Z,988.6
2018-11-06T04:22:54.624Z,988.6
2018-11-06T04:23:55.292Z,988.6
2018-11-06T04:24:55.958Z,988.6
2018-11-06T04:25:56.628Z,988.6
2018-11-06T04:26:57.291Z,988.6
2018-11-06T04:27:57.960Z,988.6
2018-11-06T04:28:58.626Z,988.6
2018-11-06T04:29:59.292Z,988.6
2018-11-06T04:30:59.959Z,988.7
2018-11-06T04:32:00.626Z,988.6
2018-11-06T04:33:01.292Z,988.6
2018-11-06T04:34:01.960Z,988.6
2018-11-06T04:35:02.633Z,988.6
2018-11-06T04:36:03.342Z,988.6
2018-11-06T04:37:04.049Z,988.6
2018-11-06T04:38:04.711Z,988.6
2018-11-06T04:39:05.379Z,988.6
2018-11-06T04:40:06.045Z,988.6
2018-11-06T04:41:06.716Z,988.6
2018-11-06T04:42:07.380Z,988.7
2018-11-06T04:43:08.094Z,988.7
2018-11-06T04:44:08.801Z,988.7
2018-11-06T04:45:09.472Z,988.7
2018-11-06T04:46:10.133Z,988.6
2018-11-06T04:47:10.801Z,988.7
2018-11-06T04:48:11.512Z,988.7
2018-11-06T04:49:12.178Z,988.7
2018-11-06T04:50:13.362Z,988.6
2018-11-06T04:51:14.027Z,988.6
2018-11-06T04:52:14.695Z,988.6
2018-11-06T04:53:15.405Z,988.7
2018-11-06T04:54:16.071Z,988.7
2018-11-06T04:55:16.737Z,988.7
2018-11-06T04:56:17.403Z,988.6
2018-11-06T04:57:18.076Z,988.6
2018-11-06T04:58:18.779Z,988.7
2018-11-06T04:59:19.452Z,988.7
2018-11-06T05:00:20.114Z,988.7
2018-11-06T05:01:20.822Z,988.7
2018-11-06T05:02:21.490Z,988.6
2018-11-06T05:03:22.156Z,988.6
2018-11-06T05:04:22.823Z,988.6
2018-11-06T05:05:23.489Z,988.7
2018-11-06T05:06:24.158Z,988.7
2018-11-06T05:07:24.824Z,988.7
2018-11-06T05:08:25.534Z,988.7
2018-11-06T05:09:26.201Z,988.7
2018-11-06T05:10:26.887Z,988.6
2018-11-06T05:11:27.540Z,988.7
2018-11-06T05:12:28.202Z,988.7
2018-11-06T05:13:28.869Z,988.7
2018-11-06T05:14:29.545Z,988.7
2018-11-06T05:15:30.246Z,988.7
2018-11-06T05:16:30.913Z,988.7
2018-11-06T05:17:31.578Z,988.7
2018-11-06T05:18:32.250Z,988.6
2018-11-06T05:19:32.912Z,988.7
2018-11-06T05:20:33.577Z,988.6
2018-11-06T05:21:34.245Z,988.7
2018-11-06T05:22:34.910Z,988.7
2018-11-06T05:23:35.575Z,988.7
2018-11-06T05:24:36.242Z,988.7
2018-11-06T05:25:37.003Z,988.7
2018-11-06T05:26:37.612Z,988.7
2018-11-06T05:27:38.452Z,988.7
2018-11-06T05:28:39.027Z,988.7
2018-11-06T05:29:39.692Z,988.7
2018-11-06T05:30:40.359Z,988.7
2018-11-06T05:31:41.025Z,988.7
2018-11-06T05:32:41.703Z,988.7
2018-11-06T05:33:42.359Z,988.7
2018-11-06T05:34:43.037Z,988.7
2018-11-06T05:35:43.728Z,988.7
2018-11-06T05:36:44.395Z,988.7
2018-11-06T05:37:45.060Z,988.7
2018-11-06T05:38:45.749Z,988.7
2018-11-06T05:39:46.396Z,988.7
2018-11-06T05:40:47.130Z,988.7
2018-11-06T05:41:47.771Z,988.8
2018-11-06T05:42:48.436Z,988.8
2018-11-06T05:43:49.119Z,988.8
2018-11-06T05:44:49.770Z,988.8
2018-11-06T05:45:50.438Z,988.8
2018-11-06T05:46:51.103Z,988.8
2018-11-06T05:47:51.769Z,988.8
2018-11-06T05:48:52.444Z,988.8
2018-11-06T05:49:53.101Z,988.8
2018-11-06T05:50:53.769Z,988.8
2018-11-06T05:51:54.438Z,988.8
2018-11-06T05:52:55.103Z,988.7
2018-11-06T05:53:55.794Z,988.8
2018-11-06T05:54:56.485Z,988.8
2018-11-06T05:55:57.152Z,988.8
2018-11-06T05:56:57.819Z,988.8
2018-11-06T05:57:58.488Z,988.8
2018-11-06T05:58:59.163Z,988.8
2018-11-06T05:59:59.867Z,988.8
2018-11-06T06:01:00.612Z,988.8
2018-11-06T06:02:01.238Z,988.8
2018-11-06T06:03:01.907Z,988.8
2018-11-06T06:04:02.578Z,988.8
2018-11-06T06:05:03.242Z,988.9
2018-11-06T06:06:03.909Z,988.9
2018-11-06T06:07:04.653Z,988.9
2018-11-06T06:08:05.259Z,989.0
2018-11-06T06:09:05.925Z,988.9
2018-11-06T06:10:06.595Z,988.9
2018-11-06T06:11:07.347Z,989.0
2018-11-06T06:12:07.933Z,989.0
2018-11-06T06:13:08.601Z,989.0
2018-11-06T06:14:09.270Z,989.1
2018-11-06T06:15:09.939Z,989.1
2018-11-06T06:16:10.608Z,989.0
2018-11-06T06:17:11.313Z,989.1
2018-11-06T06:18:11.983Z,989.0
2018-11-06T06:19:12.652Z,989.0
2018-11-06T06:20:13.321Z,989.0
2018-11-06T06:21:14.033Z,989.1
2018-11-06T06:22:14.702Z,989.1
2018-11-06T06:23:15.386Z,989.1
2018-11-06T06:24:16.093Z,989.1
2018-11-06T06:25:16.755Z,989.1
2018-11-06T06:26:17.425Z,989.1
2018-11-06T06:27:18.092Z,989.1
2018-11-06T06:28:18.814Z,989.2
2018-11-06T06:29:19.467Z,989.2
2018-11-06T06:30:20.135Z,989.2
2018-11-06T06:31:20.804Z,989.2
2018-11-06T06:32:21.475Z,989.2
2018-11-06T06:33:22.155Z,989.2
2018-11-06T06:34:22.878Z,989.2
2018-11-06T06:35:23.529Z,989.2
2018-11-06T06:36:24.199Z,989.2
2018-11-06T06:37:24.870Z,989.2
2018-11-06T06:38:25.578Z,989.2
2018-11-06T06:39:26.209Z,989.3
2018-11-06T06:40:26.878Z,989.3
2018-11-06T06:41:27.551Z,989.3
2018-11-06T06:42:28.220Z,989.3
2018-11-06T06:43:28.889Z,989.3
2018-11-06T06:44:29.560Z,989.3
2018-11-06T06:45:30.231Z,989.3
2018-11-06T06:46:30.928Z,989.3
2018-11-06T06:47:31.610Z,989.4
2018-11-06T06:48:32.281Z,989.3
2018-11-06T06:49:32.957Z,989.3
2018-11-06T06:50:33.624Z,989.4
2018-11-06T06:51:34.298Z,989.4
2018-11-06T06:52:34.967Z,989.4
2018-11-06T06:53:35.637Z,989.4
2018-11-06T06:54:36.552Z,989.4
2018-11-06T06:55:36.977Z,989.4
2018-11-06T06:56:37.651Z,989.4
2018-11-06T06:57:38.365Z,989.4
2018-11-06T06:58:39.036Z,989.4
2018-11-06T06:59:39.707Z,989.4
2018-11-06T07:00:40.377Z,989.4
2018-11-06T07:01:41.051Z,989.3
2018-11-06T07:02:41.808Z,989.3
2018-11-06T07:03:42.392Z,989.4
2018-11-06T07:04:43.064Z,989.4
2018-11-06T07:05:43.734Z,989.4
2018-11-06T07:06:44.405Z,989.4
2018-11-06T07:07:45.075Z,989.4
2018-11-06T07:08:45.746Z,989.4
2018-11-06T07:09:46.419Z,989.4
2018-11-06T07:10:47.089Z,989.3
2018-11-06T07:11:47.804Z,989.4
2018-11-06T07:12:48.509Z,989.4
2018-11-06T07:13:49.185Z,989.4
2018-11-06T07:14:49.858Z,989.4
2018-11-06T07:15:50.528Z,989.4
2018-11-06T07:16:51.200Z,989.4
2018-11-06T07:17:51.874Z,989.5
2018-11-06T07:18:52.542Z,989.5
2018-11-06T07:19:53.213Z,989.4
2018-11-06T07:20:53.884Z,989.5
2018-11-06T07:21:54.556Z,989.5
2018-11-06T07:22:55.228Z,989.5
2018-11-06T07:23:55.948Z,989.5
2018-11-06T07:24:56.619Z,989.5
2018-11-06T07:25:57.291Z,989.5
2018-11-06T07:26:57.960Z,989.5
2018-11-06T07:27:58.640Z,989.5
2018-11-06T07:28:59.416Z,989.5
2018-11-06T07:30:00.035Z,989.5
2018-11-06T07:31:00.736Z,989.5
2018-11-06T07:32:01.408Z,989.5
2018-11-06T07:33:02.080Z,989.5
2018-11-06T07:34:02.751Z,989.6
2018-11-06T07:35:03.598Z,989.5
2018-11-06T07:36:04.175Z,989.5
2018-11-06T07:37:04.846Z,989.6
2018-11-06T07:38:05.522Z,989.6
2018-11-06T07:39:06.189Z,989.6
2018-11-06T07:40:06.860Z,989.5
2018-11-06T07:41:07.602Z,989.5
2018-11-06T07:42:08.204Z,989.5
2018-11-06T07:43:08.875Z,989.4
2018-11-06T07:44:09.547Z,989.4
2018-11-06T07:45:10.218Z,989.5
2018-11-06T07:46:10.889Z,989.5
2018-11-06T07:47:11.608Z,989.5
2018-11-06T07:48:12.242Z,989.5
2018-11-06T07:49:12.913Z,989.5
2018-11-06T07:50:13.580Z,989.4
2018-11-06T07:51:14.248Z,989.4
2018-11-06T07:52:14.920Z,989.4
2018-11-06T07:53:15.592Z,989.5
2018-11-06T07:54:16.264Z,989.5
2018-11-06T07:55:16.936Z,989.5
2018-11-06T07:56:17.637Z,989.5
2018-11-06T07:57:18.280Z,989.5
2018-11-06T07:58:18.960Z,989.6
2018-11-06T07:59:19.627Z,989.6
2018-11-06T08:00:20.297Z,989.6
2018-11-06T08:01:20.969Z,989.5
2018-11-06T08:02:21.640Z,989.6
2018-11-06T08:03:22.313Z,989.6
2018-11-06T08:04:23.027Z,989.7
2018-11-06T08:05:23.656Z,989.6
2018-11-06T08:06:24.395Z,989.6
2018-11-06T08:07:25.000Z,989.6
2018-11-06T08:08:25.673Z,989.7
2018-11-06T08:09:26.397Z,989.6
2018-11-06T08:10:27.021Z,989.6
2018-11-06T08:11:27.693Z,989.6
2018-11-06T08:12:28.364Z,989.6
2018-11-06T08:13:29.041Z,989.6
2018-11-06T08:14:29.767Z,989.6
2018-11-06T08:15:30.418Z,989.6
2018-11-06T08:16:31.090Z,989.6
2018-11-06T08:17:31.764Z,989.6
2018-11-06T08:18:32.439Z,989.6
2018-11-06T08:19:33.110Z,989.6
2018-11-06T08:20:33.803Z,989.7
2018-11-06T08:21:34.493Z,989.7
2018-11-06T08:22:35.165Z,989.7
2018-11-06T08:23:35.859Z,989.7
2018-11-06T08:24:36.513Z,989.7
2018-11-06T08:25:37.186Z,989.7
2018-11-06T08:26:37.858Z,989.6
2018-11-06T08:27:38.587Z,989.6
2018-11-06T08:28:39.206Z,989.6
2018-11-06T08:29:39.881Z,989.7
2018-11-06T08:30:40.674Z,989.7
2018-11-06T08:31:41.800Z,989.7
2018-11-06T08:32:42.430Z,989.7
2018-11-06T08:33:42.658Z,989.7
2018-11-06T08:34:43.331Z,989.7
2018-11-06T08:35:44.016Z,989.7
2018-11-06T08:36:44.728Z,989.6
2018-11-06T08:37:45.396Z,989.6
2018-11-06T08:38:46.069Z,989.6
2018-11-06T08:39:46.745Z,989.5
2018-11-06T08:40:47.420Z,989.6
2018-11-06T08:41:48.093Z,989.6
2018-11-06T08:42:48.771Z,989.6
2018-11-06T08:43:49.444Z,989.7
2018-11-06T08:44:50.163Z,989.7
2018-11-06T08:45:50.893Z,989.7
2018-11-06T08:46:51.557Z,989.7
2018-11-06T08:47:52.241Z,989.7
2018-11-06T08:48:52.905Z,989.7
2018-11-06T08:49:53.580Z,989.7
2018-11-06T08:50:54.258Z,989.7
2018-11-06T08:51:54.926Z,989.6
2018-11-06T08:52:55.601Z,989.7
2018-11-06T08:53:56.279Z,989.7
2018-11-06T08:54:56.993Z,989.7
2018-11-06T08:55:57.669Z,989.7
2018-11-06T08:56:58.341Z,989.6
2018-11-06T08:57:59.027Z,989.6
2018-11-06T08:58:59.739Z,989.6
2018-11-06T09:00:00.410Z,989.6
2018-11-06T09:01:01.084Z,989.6
2018-11-06T09:02:01.805Z,989.6
2018-11-06T09:03:02.532Z,989.6
2018-11-06T09:04:03.242Z,989.7
2018-11-06T09:05:03.916Z,989.6
2018-11-06T09:06:04.591Z,989.6
2018-11-06T09:07:05.298Z,989.6
2018-11-06T09:08:05.984Z,989.7
2018-11-06T09:09:06.660Z,989.7
2018-11-06T09:10:07.334Z,989.7
2018-11-06T09:11:08.008Z,989.7
2018-11-06T09:12:08.689Z,989.7
2018-11-06T09:13:09.356Z,989.7
2018-11-06T09:14:10.083Z,989.7
2018-11-06T09:15:10.798Z,989.7
2018-11-06T09:16:11.469Z,989.7
2018-11-06T09:17:12.268Z,989.7
2018-11-06T09:18:12.857Z,989.8
2018-11-06T09:19:13.532Z,989.7
2018-11-06T09:20:14.205Z,989.8
2018-11-06T09:21:14.882Z,989.8
2018-11-06T09:22:15.558Z,989.8
2018-11-06T09:23:16.230Z,989.8
2018-11-06T09:24:16.905Z,989.8
2018-11-06T09:25:17.580Z,989.8
2018-11-06T09:26:18.254Z,989.8
2018-11-06T09:27:18.934Z,989.9
2018-11-06T09:28:19.605Z,989.8
2018-11-06T09:29:20.279Z,989.9
2018-11-06T09:30:20.955Z,989.8
2018-11-06T09:31:21.631Z,989.8
2018-11-06T09:32:22.305Z,989.9
2018-11-06T09:33:22.980Z,989.9
2018-11-06T09:34:23.656Z,989.9
2018-11-06T09:35:24.331Z,989.9
2018-11-06T09:36:25.009Z,989.8
2018-11-06T09:37:25.691Z,989.8
2018-11-06T09:38:26.356Z,989.9
2018-11-06T09:39:27.032Z,989.8
2018-11-06T09:41:28.507Z,989.9
2018-11-06T09:42:29.098Z,989.9
2018-11-06T09:43:29.775Z,989.9
2018-11-06T09:44:30.450Z,989.9
2018-11-06T09:45:31.204Z,989.9
2018-11-06T09:46:31.804Z,989.9
2018-11-06T09:47:32.479Z,989.9
2018-11-06T09:48:33.197Z,989.8
2018-11-06T09:49:33.879Z,989.8
2018-11-06T09:50:34.595Z,989.8
2018-11-06T09:51:35.270Z,989.8
2018-11-06T09:52:35.944Z,989.8
2018-11-06T09:53:36.621Z,989.8
2018-11-06T09:54:37.297Z,989.8
2018-11-06T09:55:37.968Z,989.7
2018-11-06T09:56:38.645Z,989.7
2018-11-06T09:57:39.318Z,989.7
2018-11-06T09:58:39.994Z,989.7
2018-11-06T09:59:40.696Z,989.7
2018-11-06T10:00:41.390Z,989.7
2018-11-06T10:01:42.065Z,989.7
2018-11-06T10:02:42.741Z,989.7
2018-11-06T10:03:43.416Z,989.8
2018-11-06T10:04:44.090Z,989.8
2018-11-06T10:05:44.765Z,989.8
2018-11-06T10:06:45.559Z,989.8
2018-11-06T10:07:46.145Z,989.8
2018-11-06T10:08:46.800Z,989.8
2018-11-06T10:09:47.511Z,989.7
2018-11-06T10:10:48.190Z,989.6
2018-11-06T10:11:48.862Z,989.6
2018-11-06T10:12:49.540Z,989.6
2018-11-06T10:13:50.256Z,989.6
2018-11-06T10:14:50.936Z,989.6
2018-11-06T10:15:51.609Z,989.6
2018-11-06T10:16:52.286Z,989.6
2018-11-06T10:17:52.963Z,989.6
2018-11-06T10:18:53.679Z,989.6
2018-11-06T10:19:54.357Z,989.6
2018-11-06T10:20:55.031Z,989.6
2018-11-06T10:21:55.706Z,989.6
2018-11-06T10:22:56.380Z,989.6
2018-11-06T10:23:57.099Z,989.5
2018-11-06T10:24:57.774Z,989.6
2018-11-06T10:25:58.450Z,989.6
2018-11-06T10:26:59.126Z,989.6
2018-11-06T10:27:59.854Z,989.6
2018-11-06T10:29:00.531Z,989.6
2018-11-06T10:30:01.208Z,989.6
2018-11-06T10:31:01.883Z,989.6
2018-11-06T10:32:02.561Z,989.5
2018-11-06T10:33:03.238Z,989.5
2018-11-06T10:34:03.914Z,989.5
2018-11-06T10:35:04.591Z,989.5
2018-11-06T10:36:05.267Z,989.5
2018-11-06T10:37:05.942Z,989.5
2018-11-06T10:38:06.649Z,989.5
2018-11-06T10:39:07.333Z,989.5
2018-11-06T10:40:08.006Z,989.5
2018-11-06T10:41:08.681Z,989.5
2018-11-06T10:42:09.367Z,989.5
2018-11-06T10:43:10.036Z,989.5
2018-11-06T10:44:10.755Z,989.5
2018-11-06T10:45:11.432Z,989.5
2018-11-06T10:46:12.150Z,989.5
2018-11-06T10:47:12.827Z,989.5
2018-11-06T10:48:13.502Z,989.5
2018-11-06T10:49:14.181Z,989.5
2018-11-06T10:50:14.908Z,989.4
2018-11-06T10:51:15.575Z,989.4
2018-11-06T10:52:16.253Z,989.5
2018-11-06T10:53:16.931Z,989.4
2018-11-06T10:54:17.640Z,989.4
2018-11-06T10:55:18.327Z,989.4
2018-11-06T10:56:19.004Z,989.4
2018-11-06T10:57:19.681Z,989.4
2018-11-06T10:58:20.356Z,989.4
2018-11-06T10:59:21.036Z,989.3
2018-11-06T11:00:21.710Z,989.3
2018-11-06T11:01:22.386Z,989.3
2018-11-06T11:02:23.062Z,989.3
2018-11-06T11:03:23.739Z,989.2
2018-11-06T11:04:24.416Z,989.3
2018-11-06T11:05:25.095Z,989.2
2018-11-06T11:06:25.815Z,989.2
2018-11-06T11:07:26.490Z,989.2
2018-11-06T11:08:27.167Z,989.2
2018-11-06T11:09:27.846Z,989.2
2018-11-06T11:10:28.521Z,989.3
2018-11-06T11:11:29.203Z,989.2
2018-11-06T11:12:29.885Z,989.1
2018-11-06T11:13:30.625Z,989.1
2018-11-06T11:14:31.228Z,989.1
2018-11-06T11:15:31.932Z,989.1
2018-11-06T11:16:32.623Z,989.1
2018-11-06T11:17:33.301Z,989.0
2018-11-06T11:18:33.978Z,989.0
2018-11-06T11:19:34.655Z,989.0
2018-11-06T11:20:35.332Z,988.9
2018-11-06T11:21:36.011Z,988.9
2018-11-06T11:22:36.688Z,988.9
2018-11-06T11:23:37.365Z,988.9
2018-11-06T11:24:38.041Z,988.8
2018-11-06T11:25:38.775Z,988.8
2018-11-06T11:26:39.395Z,988.8
2018-11-06T11:27:40.072Z,988.8
2018-11-06T11:28:40.751Z,988.8
2018-11-06T11:29:41.433Z,988.8
2018-11-06T11:30:42.105Z,988.8
2018-11-06T11:31:42.783Z,988.8
2018-11-06T11:32:43.461Z,988.8
2018-11-06T11:33:44.140Z,988.7
2018-11-06T11:34:44.857Z,988.8
2018-11-06T11:35:45.534Z,988.7
2018-11-06T11:36:46.211Z,988.8
2018-11-06T11:37:46.981Z,988.8
2018-11-06T11:38:47.607Z,988.8
2018-11-06T11:39:48.288Z,988.8
2018-11-06T11:40:48.957Z,988.7
2018-11-06T11:41:49.633Z,988.7
2018-11-06T11:42:50.310Z,988.7
2018-11-06T11:43:50.987Z,988.6
2018-11-06T11:44:51.665Z,988.6
2018-11-06T11:45:52.399Z,988.6
2018-11-06T11:46:53.016Z,988.7
2018-11-06T11:47:53.696Z,988.7
2018-11-06T11:48:54.416Z,988.7
2018-11-06T11:49:55.132Z,988.7
2018-11-06T11:50:55.809Z,988.7
2018-11-06T11:51:56.484Z,988.7
2018-11-06T11:52:57.162Z,988.7
2018-11-06T11:53:57.838Z,988.7
2018-11-06T11:54:58.514Z,988.7
2018-11-06T11:55:59.190Z,988.7
2018-11-06T11:56:59.867Z,988.7
2018-11-06T11:58:00.541Z,988.8
2018-11-06T11:59:01.218Z,988.7
2018-11-06T12:00:02.023Z,988.7
2018-11-06T12:01:02.608Z,988.7
2018-11-06T12:02:03.332Z,988.7
2018-11-06T12:03:04.001Z,988.7
2018-11-06T12:04:04.677Z,988.7
2018-11-06T12:05:05.404Z,988.7
2018-11-06T12:06:06.074Z,988.7
2018-11-06T12:07:06.751Z,988.7
2018-11-06T12:08:07.427Z,988.7
2018-11-06T12:09:08.136Z,988.6
2018-11-06T12:10:08.848Z,988.6
2018-11-06T12:11:09.556Z,988.6
2018-11-06T12:12:10.263Z,988.6
2018-11-06T12:13:10.960Z,988.5
2018-11-06T12:14:11.660Z,988.5
2018-11-06T12:15:12.336Z,988.5
2018-11-06T12:16:13.015Z,988.5
2018-11-06T12:17:13.712Z,988.4
2018-11-06T12:18:14.384Z,988.5
2018-11-06T12:19:15.043Z,988.4
2018-11-06T12:20:15.719Z,988.4
2018-11-06T12:21:16.397Z,988.5
2018-11-06T12:22:17.112Z,988.5
2018-11-06T12:23:17.792Z,988.5
2018-11-06T12:24:18.656Z,988.5
2018-11-06T12:25:19.408Z,988.5
2018-11-06T12:26:19.857Z,988.5
2018-11-06T12:27:20.534Z,988.5
2018-11-06T12:28:21.209Z,988.5
2018-11-06T12:29:21.886Z,988.5
2018-11-06T12:30:22.564Z,988.5
2018-11-06T12:31:23.238Z,988.5
2018-11-06T12:32:23.965Z,988.5
2018-11-06T12:33:24.588Z,988.5
2018-11-06T12:34:25.266Z,988.5
2018-11-06T12:35:25.941Z,988.5
2018-11-06T12:36:26.651Z,988.5
2018-11-06T12:37:27.293Z,988.4
2018-11-06T12:38:27.973Z,988.4
2018-11-06T12:39:28.688Z,988.4
2018-11-06T12:40:29.369Z,988.4
2018-11-06T12:41:30.042Z,988.4
2018-11-06T12:42:30.718Z,988.4
2018-11-06T12:43:31.441Z,988.4
2018-11-06T12:44:32.076Z,988.4
2018-11-06T12:45:32.751Z,988.3
2018-11-06T12:46:33.430Z,988.3
2018-11-06T12:47:34.106Z,988.3
2018-11-06T12:48:34.833Z,988.4
2018-11-06T12:49:35.493Z,988.3
2018-11-06T12:50:36.170Z,988.3
2018-11-06T12:51:36.848Z,988.4
2018-11-06T12:52:37.567Z,988.3
2018-11-06T12:53:38.267Z,988.3
2018-11-06T12:54:38.969Z,988.4
2018-11-06T12:55:39.683Z,988.3
2018-11-06T12:56:40.361Z,988.4
2018-11-06T12:57:41.038Z,988.4
2018-11-06T12:58:41.713Z,988.4
2018-11-06T12:59:42.397Z,988.4
2018-11-06T13:00:43.110Z,988.4
2018-11-06T13:01:43.786Z,988.4
2018-11-06T13:02:44.462Z,988.4